sensor_id;sensor_type;location;lat;lon;timestamp;pressure;altitude;pressure_sealevel;temperature;humidity
39449;BME280;25151;45.566;9.382;2023-01-27T00:02:22;99385.78;;;19.05;54.71
39449;BME280;25151;45.566;9.382;2023-01-27T00:05:23;99380.97;;;19.06;54.75
39449;BME280;25151;45.566;9.382;2023-01-27T00:08:27;99384.19;;;19.04;54.37
39449;BME280;25151;45.566;9.382;2023-01-27T00:11:28;99385.13;;;19.01;54.80
39449;BME280;25151;45.566;9.382;2023-01-27T00:14:47;99381.41;;;19.04;54.43
39449;BME280;25151;45.566;9.382;2023-01-27T00:17:48;99381.09;;;19.02;54.60
39449;BME280;25151;45.566;9.382;2023-01-27T00:20:49;99386.66;;;19.02;54.46
39449;BME280;25151;45.566;9.382;2023-01-27T00:24:12;99380.41;;;18.98;54.42
39449;BME280;25151;45.566;9.382;2023-01-27T00:27:48;99373.59;;;18.99;54.39
39449;BME280;25151;45.566;9.382;2023-01-27T00:30:49;99374.81;;;18.98;54.01
39449;BME280;25151;45.566;9.382;2023-01-27T00:33:50;99381.97;;;18.99;54.36
39449;BME280;25151;45.566;9.382;2023-01-27T00:36:53;99366.09;;;18.96;54.30
39449;BME280;25151;45.566;9.382;2023-01-27T00:39:54;99371.69;;;18.96;54.33
39449;BME280;25151;45.566;9.382;2023-01-27T00:42:54;99366.91;;;18.97;54.30
39449;BME280;25151;45.566;9.382;2023-01-27T00:45:55;99367.78;;;18.94;54.28
39449;BME280;25151;45.566;9.382;2023-01-27T00:48:56;99369.34;;;18.95;54.38
39449;BME280;25151;45.566;9.382;2023-01-27T00:51:56;99365.78;;;18.94;54.31
39449;BME280;25151;45.566;9.382;2023-01-27T00:54:57;99365.00;;;18.94;54.25
39449;BME280;25151;45.566;9.382;2023-01-27T00:57:58;99363.88;;;18.91;54.21
39449;BME280;25151;45.566;9.382;2023-01-27T01:01:00;99356.72;;;18.90;54.16
39449;BME280;25151;45.566;9.382;2023-01-27T01:04:01;99367.13;;;18.89;54.21
39449;BME280;25151;45.566;9.382;2023-01-27T01:07:02;99370.25;;;18.91;54.21
39449;BME280;25151;45.566;9.382;2023-01-27T01:10:03;99382.31;;;18.88;54.09
39449;BME280;25151;45.566;9.382;2023-01-27T01:13:04;99378.31;;;18.89;53.97
39449;BME280;25151;45.566;9.382;2023-01-27T01:16:10;99377.19;;;18.87;54.16
39449;BME280;25151;45.566;9.382;2023-01-27T01:19:11;99361.66;;;18.86;54.17
39449;BME280;25151;45.566;9.382;2023-01-27T01:22:12;99366.91;;;18.84;54.24
39449;BME280;25151;45.566;9.382;2023-01-27T01:25:12;99372.06;;;18.85;54.00
39449;BME280;25151;45.566;9.382;2023-01-27T01:28:13;99365.69;;;18.85;54.37
39449;BME280;25151;45.566;9.382;2023-01-27T01:31:16;99372.84;;;18.86;53.91
39449;BME280;25151;45.566;9.382;2023-01-27T01:34:17;99368.91;;;18.83;53.94
39449;BME280;25151;45.566;9.382;2023-01-27T01:37:18;99370.47;;;18.84;54.01
39449;BME280;25151;45.566;9.382;2023-01-27T01:40:20;99369.38;;;18.82;54.03
39449;BME280;25151;45.566;9.382;2023-01-27T01:43:22;99362.66;;;18.79;53.96
39449;BME280;25151;45.566;9.382;2023-01-27T01:46:22;99375.72;;;18.82;54.10
39449;BME280;25151;45.566;9.382;2023-01-27T01:49:36;99369.38;;;18.82;53.80
39449;BME280;25151;45.566;9.382;2023-01-27T01:52:39;99361.41;;;18.80;54.01
39449;BME280;25151;45.566;9.382;2023-01-27T01:55:41;99363.44;;;18.80;53.94
39449;BME280;25151;45.566;9.382;2023-01-27T01:58:43;99366.22;;;18.80;53.93
39449;BME280;25151;45.566;9.382;2023-01-27T02:01:45;99356.66;;;18.81;53.93
39449;BME280;25151;45.566;9.382;2023-01-27T02:04:56;99356.66;;;18.81;53.95
39449;BME280;25151;45.566;9.382;2023-01-27T02:11:12;99358.75;;;18.77;53.92
39449;BME280;25151;45.566;9.382;2023-01-27T02:14:13;99371.81;;;18.80;53.77
39449;BME280;25151;45.566;9.382;2023-01-27T02:17:15;99357.19;;;18.76;53.81
39449;BME280;25151;45.566;9.382;2023-01-27T02:26:48;99365.13;;;18.77;53.83
39449;BME280;25151;45.566;9.382;2023-01-27T02:29:50;99366.78;;;18.75;54.10
39449;BME280;25151;45.566;9.382;2023-01-27T02:32:51;99361.22;;;18.75;53.79
39449;BME280;25151;45.566;9.382;2023-01-27T02:36:03;99362.09;;;18.72;53.73
39449;BME280;25151;45.566;9.382;2023-01-27T02:39:07;99361.31;;;18.71;53.80
39449;BME280;25151;45.566;9.382;2023-01-27T02:42:13;99360.88;;;18.73;53.70
39449;BME280;25151;45.566;9.382;2023-01-27T02:45:15;99353.72;;;18.72;53.78
39449;BME280;25151;45.566;9.382;2023-01-27T02:48:15;99358.06;;;18.73;53.69
39449;BME280;25151;45.566;9.382;2023-01-27T02:51:16;99367.69;;;18.72;53.60
39449;BME280;25151;45.566;9.382;2023-01-27T02:54:17;99362.88;;;18.72;53.53
39449;BME280;25151;45.566;9.382;2023-01-27T02:57:17;99360.09;;;18.72;53.75
39449;BME280;25151;45.566;9.382;2023-01-27T03:00:18;99357.38;;;18.68;53.82
39449;BME280;25151;45.566;9.382;2023-01-27T03:03:19;99367.69;;;18.72;53.71
39449;BME280;25151;45.566;9.382;2023-01-27T03:06:20;99357.28;;;18.72;53.71
39449;BME280;25151;45.566;9.382;2023-01-27T03:09:21;99351.78;;;18.68;53.48
39449;BME280;25151;45.566;9.382;2023-01-27T03:12:21;99355.38;;;18.69;53.70
39449;BME280;25151;45.566;9.382;2023-01-27T03:15:22;99357.06;;;18.66;53.69
39449;BME280;25151;45.566;9.382;2023-01-27T03:18:42;99358.97;;;18.70;53.69
39449;BME280;25151;45.566;9.382;2023-01-27T03:21:47;99366.22;;;18.67;53.55
39449;BME280;25151;45.566;9.382;2023-01-27T03:24:52;99359.84;;;18.66;53.63
39449;BME280;25151;45.566;9.382;2023-01-27T03:27:52;99354.25;;;18.66;53.56
39449;BME280;25151;45.566;9.382;2023-01-27T03:31:01;99354.25;;;18.66;53.62
39449;BME280;25151;45.566;9.382;2023-01-27T03:34:02;99344.31;;;18.65;53.65
39449;BME280;25151;45.566;9.382;2023-01-27T03:37:03;99352.69;;;18.65;53.52
39449;BME280;25151;45.566;9.382;2023-01-27T03:40:22;99349.44;;;18.67;53.55
39449;BME280;25151;45.566;9.382;2023-01-27T03:43:41;99360.63;;;18.67;53.74
39449;BME280;25151;45.566;9.382;2023-01-27T03:47:01;99348.00;;;18.62;53.58
39449;BME280;25151;45.566;9.382;2023-01-27T03:50:02;99353.59;;;18.62;53.59
39449;BME280;25151;45.566;9.382;2023-01-27T03:53:04;99354.38;;;18.63;53.54
39449;BME280;25151;45.566;9.382;2023-01-27T03:56:08;99350.44;;;18.60;53.69
39449;BME280;25151;45.566;9.382;2023-01-27T03:59:08;99351.56;;;18.63;53.61
39449;BME280;25151;45.566;9.382;2023-01-27T04:02:09;99350.81;;;18.62;53.44
39449;BME280;25151;45.566;9.382;2023-01-27T04:05:29;99347.66;;;18.60;53.53
39449;BME280;25151;45.566;9.382;2023-01-27T04:08:48;99354.81;;;18.61;53.51
39449;BME280;25151;45.566;9.382;2023-01-27T04:11:48;99353.25;;;18.60;53.55
39449;BME280;25151;45.566;9.382;2023-01-27T04:14:55;99356.03;;;18.60;53.65
39449;BME280;25151;45.566;9.382;2023-01-27T04:17:56;99359.75;;;18.57;53.56
39449;BME280;25151;45.566;9.382;2023-01-27T04:20:57;99372.78;;;18.60;53.49
39449;BME280;25151;45.566;9.382;2023-01-27T04:23:58;99364.09;;;18.58;53.71
39449;BME280;25151;45.566;9.382;2023-01-27T04:27:07;99383.97;;;18.60;53.53
39449;BME280;25151;45.566;9.382;2023-01-27T04:30:08;99369.69;;;18.58;53.48
39449;BME280;25151;45.566;9.382;2023-01-27T04:33:09;99372.78;;;18.60;53.49
39449;BME280;25151;45.566;9.382;2023-01-27T04:36:15;99372.13;;;18.56;53.43
39449;BME280;25151;45.566;9.382;2023-01-27T04:39:16;99371.34;;;18.56;53.36
39449;BME280;25151;45.566;9.382;2023-01-27T04:42:17;99369.31;;;18.56;53.43
39449;BME280;25151;45.566;9.382;2023-01-27T04:45:18;99366.53;;;18.56;53.47
39449;BME280;25151;45.566;9.382;2023-01-27T04:48:19;99364.09;;;18.58;53.47
39449;BME280;25151;45.566;9.382;2023-01-27T04:51:20;99353.81;;;18.55;53.44
39449;BME280;25151;45.566;9.382;2023-01-27T04:54:21;99363.41;;;18.54;53.46
39449;BME280;25151;45.566;9.382;2023-01-27T04:57:21;99361.88;;;18.53;53.45
39449;BME280;25151;45.566;9.382;2023-01-27T05:00:22;99366.63;;;18.53;53.47
39449;BME280;25151;45.566;9.382;2023-01-27T05:03:23;99387.31;;;18.55;53.33
39449;BME280;25151;45.566;9.382;2023-01-27T05:06:25;99374.25;;;18.52;53.47
39449;BME280;25151;45.566;9.382;2023-01-27T05:09:26;99379.81;;;18.52;53.32
39449;BME280;25151;45.566;9.382;2023-01-27T05:12:26;99371.91;;;18.51;53.46
39449;BME280;25151;45.566;9.382;2023-01-27T05:15:27;99380.19;;;18.54;53.53
39449;BME280;25151;45.566;9.382;2023-01-27T05:18:30;99383.38;;;18.53;53.39
39449;BME280;25151;45.566;9.382;2023-01-27T05:21:30;99389.78;;;18.53;53.42
39449;BME280;25151;45.566;9.382;2023-01-27T05:24:32;99382.72;;;18.49;53.41
39449;BME280;25151;45.566;9.382;2023-01-27T05:27:33;99383.53;;;18.49;53.32
39449;BME280;25151;45.566;9.382;2023-01-27T05:30:34;99383.53;;;18.49;53.45
39449;BME280;25151;45.566;9.382;2023-01-27T05:33:35;99385.97;;;18.47;53.36
39449;BME280;25151;45.566;9.382;2023-01-27T05:36:36;99389.53;;;18.48;53.35
39449;BME280;25151;45.566;9.382;2023-01-27T05:39:36;99388.31;;;18.49;53.43
39449;BME280;25151;45.566;9.382;2023-01-27T05:42:37;99395.91;;;18.48;53.49
39449;BME280;25151;45.566;9.382;2023-01-27T05:45:38;99396.34;;;18.47;53.48
39449;BME280;25151;45.566;9.382;2023-01-27T05:48:41;99399.94;;;18.47;53.19
39449;BME280;25151;45.566;9.382;2023-01-27T05:51:42;99403.50;;;18.48;53.41
39449;BME280;25151;45.566;9.382;2023-01-27T05:54:43;99401.16;;;18.46;53.24
39449;BME280;25151;45.566;9.382;2023-01-27T05:57:44;99402.38;;;18.45;53.43
39449;BME280;25151;45.566;9.382;2023-01-27T06:00:44;99407.94;;;18.45;53.34
39449;BME280;25151;45.566;9.382;2023-01-27T06:03:45;99413.09;;;18.47;53.17
39449;BME280;25151;45.566;9.382;2023-01-27T06:06:46;99410.41;;;18.43;53.46
39449;BME280;25151;45.566;9.382;2023-01-27T06:09:47;99410.75;;;18.45;53.43
39449;BME280;25151;45.566;9.382;2023-01-27T06:12:48;99410.75;;;18.45;53.39
39449;BME280;25151;45.566;9.382;2023-01-27T06:15:49;99416.31;;;18.45;53.34
39449;BME280;25151;45.566;9.382;2023-01-27T06:18:50;99420.34;;;18.44;53.50
39449;BME280;25151;45.566;9.382;2023-01-27T06:21:51;99422.72;;;18.46;53.42
39449;BME280;25151;45.566;9.382;2023-01-27T06:24:51;99419.56;;;18.43;53.34
39449;BME280;25151;45.566;9.382;2023-01-27T06:27:56;99422.38;;;18.43;53.32
39449;BME280;25151;45.566;9.382;2023-01-27T06:31:18;99435.53;;;18.43;53.34
39449;BME280;25151;45.566;9.382;2023-01-27T06:34:20;99431.63;;;18.40;53.29
39449;BME280;25151;45.566;9.382;2023-01-27T06:37:21;99424.03;;;18.41;53.36
39449;BME280;25151;45.566;9.382;2023-01-27T06:40:22;99426.03;;;18.40;53.31
39449;BME280;25151;45.566;9.382;2023-01-27T06:43:23;99437.66;;;18.39;53.38
39449;BME280;25151;45.566;9.382;2023-01-27T06:46:23;99434.88;;;18.39;53.39
39449;BME280;25151;45.566;9.382;2023-01-27T06:49:24;99437.97;;;18.41;53.39
39449;BME280;25151;45.566;9.382;2023-01-27T06:52:24;99440.44;;;18.39;53.37
39449;BME280;25151;45.566;9.382;2023-01-27T06:55:28;99440.44;;;18.39;53.45
39449;BME280;25151;45.566;9.382;2023-01-27T06:58:29;99447.28;;;18.38;53.22
39449;BME280;25151;45.566;9.382;2023-01-27T07:01:30;99438.91;;;18.38;53.28
39449;BME280;25151;45.566;9.382;2023-01-27T07:04:30;99445.69;;;18.37;53.38
39449;BME280;25151;45.566;9.382;2023-01-27T07:07:31;99451.25;;;18.37;53.34
39449;BME280;25151;45.566;9.382;2023-01-27T07:10:32;99452.84;;;18.38;53.19
39449;BME280;25151;45.566;9.382;2023-01-27T07:13:33;99459.53;;;18.40;53.18
39449;BME280;25151;45.566;9.382;2023-01-27T07:16:33;99450.06;;;18.38;53.19
39449;BME280;25151;45.566;9.382;2023-01-27T07:19:34;99458.56;;;18.47;53.07
39449;BME280;25151;45.566;9.382;2023-01-27T07:22:35;99466.06;;;18.50;53.05
39449;BME280;25151;45.566;9.382;2023-01-27T07:25:35;99465.84;;;18.57;53.10
39449;BME280;25151;45.566;9.382;2023-01-27T07:28:36;99467.72;;;18.60;53.14
39449;BME280;25151;45.566;9.382;2023-01-27T07:31:37;99471.56;;;18.66;53.21
39449;BME280;25151;45.566;9.382;2023-01-27T07:34:37;99485.00;;;18.72;53.02
39449;BME280;25151;45.566;9.382;2023-01-27T07:37:38;99488.03;;;18.77;53.08
39449;BME280;25151;45.566;9.382;2023-01-27T07:40:39;99486.69;;;18.82;53.11
39449;BME280;25151;45.566;9.382;2023-01-27T07:43:40;99494.88;;;18.89;53.00
39449;BME280;25151;45.566;9.382;2023-01-27T07:46:40;99501.13;;;18.93;52.99
39449;BME280;25151;45.566;9.382;2023-01-27T07:49:41;99505.69;;;19.00;52.87
39449;BME280;25151;45.566;9.382;2023-01-27T07:52:41;99510.75;;;19.05;52.92
39449;BME280;25151;45.566;9.382;2023-01-27T07:55:42;99506.94;;;19.11;52.85
39449;BME280;25151;45.566;9.382;2023-01-27T07:58:43;99511.19;;;19.16;52.75
39449;BME280;25151;45.566;9.382;2023-01-27T08:01:43;99503.34;;;19.24;52.45
39449;BME280;25151;45.566;9.382;2023-01-27T08:04:47;99515.88;;;19.32;52.50
39449;BME280;25151;45.566;9.382;2023-01-27T08:07:49;99513.75;;;19.36;52.47
39449;BME280;25151;45.566;9.382;2023-01-27T08:10:53;99521.59;;;19.41;52.42
39449;BME280;25151;45.566;9.382;2023-01-27T08:13:53;99525.06;;;19.45;52.21
39449;BME280;25151;45.566;9.382;2023-01-27T08:16:55;99524.50;;;19.50;52.23
39449;BME280;25151;45.566;9.382;2023-01-27T08:19:58;99528.41;;;19.53;52.17
39449;BME280;25151;45.566;9.382;2023-01-27T08:23:00;99528.72;;;19.55;52.18
39449;BME280;25151;45.566;9.382;2023-01-27T08:26:03;99526.59;;;19.59;52.23
39449;BME280;25151;45.566;9.382;2023-01-27T08:29:03;99526.16;;;19.60;51.88
39449;BME280;25151;45.566;9.382;2023-01-27T08:32:04;99526.84;;;19.64;51.89
39449;BME280;25151;45.566;9.382;2023-01-27T08:35:05;99533.22;;;19.65;51.86
39449;BME280;25151;45.566;9.382;2023-01-27T08:38:06;99536.81;;;19.65;51.94
39449;BME280;25151;45.566;9.382;2023-01-27T08:41:09;99532.00;;;19.66;52.06
39449;BME280;25151;45.566;9.382;2023-01-27T08:44:10;99535.13;;;19.68;51.84
39449;BME280;25151;45.566;9.382;2023-01-27T08:47:11;99533.13;;;19.69;51.70
39449;BME280;25151;45.566;9.382;2023-01-27T08:50:12;99545.88;;;19.70;51.83
39449;BME280;25151;45.566;9.382;2023-01-27T08:53:13;99541.50;;;19.69;51.69
39449;BME280;25151;45.566;9.382;2023-01-27T08:56:14;99538.72;;;19.69;51.68
39449;BME280;25151;45.566;9.382;2023-01-27T08:59:15;99545.88;;;19.70;51.53
39449;BME280;25151;45.566;9.382;2023-01-27T09:02:15;99544.63;;;19.71;51.64
39449;BME280;25151;45.566;9.382;2023-01-27T09:05:18;99542.59;;;19.71;51.70
39449;BME280;25151;45.566;9.382;2023-01-27T09:08:19;99544.63;;;19.71;51.69
39449;BME280;25151;45.566;9.382;2023-01-27T09:11:20;99551.22;;;19.77;51.50
39449;BME280;25151;45.566;9.382;2023-01-27T09:14:20;99547.97;;;19.78;51.19
39449;BME280;25151;45.566;9.382;2023-01-27T09:17:21;99545.94;;;19.79;51.42
39449;BME280;25151;45.566;9.382;2023-01-27T09:20:22;99552.88;;;19.87;51.44
39449;BME280;25151;45.566;9.382;2023-01-27T09:23:22;99544.47;;;19.87;51.42
39449;BME280;25151;45.566;9.382;2023-01-27T09:26:23;99552.06;;;19.99;51.01
39449;BME280;25151;45.566;9.382;2023-01-27T09:29:24;99557.78;;;20.08;50.98
39449;BME280;25151;45.566;9.382;2023-01-27T09:32:24;99557.53;;;20.16;50.71
39449;BME280;25151;45.566;9.382;2023-01-27T09:35:29;99558.19;;;20.20;50.69
39449;BME280;25151;45.566;9.382;2023-01-27T09:38:42;99559.53;;;20.15;50.77
39449;BME280;25151;45.566;9.382;2023-01-27T09:45:31;99558.09;;;20.10;50.97
39449;BME280;25151;45.566;9.382;2023-01-27T09:49:06;99566.16;;;20.08;51.00
39449;BME280;25151;45.566;9.382;2023-01-27T09:55:37;99567.72;;;20.09;50.99
39449;BME280;25151;45.566;9.382;2023-01-27T09:58:59;99574.44;;;20.12;50.74
39449;BME280;25151;45.566;9.382;2023-01-27T10:02:14;99561.00;;;20.07;51.06
39449;BME280;25151;45.566;9.382;2023-01-27T10:05:35;99566.16;;;20.08;51.21
39449;BME280;25151;45.566;9.382;2023-01-27T10:08:43;99558.09;;;20.10;51.09
39449;BME280;25151;45.566;9.382;2023-01-27T10:12:21;99557.31;;;20.10;50.95
39449;BME280;25151;45.566;9.382;2023-01-27T10:19:09;99555.63;;;20.12;50.96
39449;BME280;25151;45.566;9.382;2023-01-27T10:22:19;99556.06;;;20.11;50.95
39449;BME280;25151;45.566;9.382;2023-01-27T10:28:35;99550.34;;;20.14;50.88
39449;BME280;25151;45.566;9.382;2023-01-27T10:31:45;99541.81;;;20.18;50.87
39449;BME280;25151;45.566;9.382;2023-01-27T10:38:29;99545.50;;;20.28;50.87
39449;BME280;25151;45.566;9.382;2023-01-27T10:41:51;99541.47;;;20.29;50.75
39449;BME280;25151;45.566;9.382;2023-01-27T10:45:37;99548.97;;;20.32;50.83
39449;BME280;25151;45.566;9.382;2023-01-27T10:48:50;99545.38;;;20.31;50.85
39449;BME280;25151;45.566;9.382;2023-01-27T10:52:00;99530.91;;;20.33;50.80
39449;BME280;25151;45.566;9.382;2023-01-27T10:55:28;99546.03;;;20.35;50.60
39449;BME280;25151;45.566;9.382;2023-01-27T11:02:19;99534.69;;;20.39;51.07
39449;BME280;25151;45.566;9.382;2023-01-27T11:05:36;99538.72;;;20.38;50.66
39449;BME280;25151;45.566;9.382;2023-01-27T11:08:40;99537.47;;;20.39;50.56
39449;BME280;25151;45.566;9.382;2023-01-27T11:11:42;99535.94;;;20.38;50.55
39449;BME280;25151;45.566;9.382;2023-01-27T11:14:45;99530.78;;;20.36;50.69
39449;BME280;25151;45.566;9.382;2023-01-27T11:17:48;99537.94;;;20.37;50.76
39449;BME280;25151;45.566;9.382;2023-01-27T11:20:52;99537.16;;;20.37;50.75
39449;BME280;25151;45.566;9.382;2023-01-27T11:23:54;99535.63;;;20.36;50.51
39449;BME280;25151;45.566;9.382;2023-01-27T11:27:06;99533.72;;;20.33;50.75
39449;BME280;25151;45.566;9.382;2023-01-27T11:37:07;99529.66;;;20.34;50.59
39449;BME280;25151;45.566;9.382;2023-01-27T11:40:21;99530.91;;;20.33;50.64
39449;BME280;25151;45.566;9.382;2023-01-27T11:43:26;99529.22;;;20.35;50.58
39449;BME280;25151;45.566;9.382;2023-01-27T11:46:28;99525.06;;;20.40;50.72
39449;BME280;25151;45.566;9.382;2023-01-27T11:49:34;99518.56;;;20.43;50.64
39449;BME280;25151;45.566;9.382;2023-01-27T11:52:36;99528.81;;;20.46;50.46
39449;BME280;25151;45.566;9.382;2023-01-27T11:55:42;99521.56;;;20.49;50.61
39449;BME280;25151;45.566;9.382;2023-01-27T11:59:05;99519.91;;;20.51;50.40
39449;BME280;25151;45.566;9.382;2023-01-27T12:02:21;99519.91;;;20.51;50.42
39449;BME280;25151;45.566;9.382;2023-01-27T12:05:39;99513.56;;;20.60;50.21
39449;BME280;25151;45.566;9.382;2023-01-27T12:08:44;99508.13;;;20.66;50.47
39449;BME280;25151;45.566;9.382;2023-01-27T12:11:45;99504.09;;;20.67;50.17
39449;BME280;25151;45.566;9.382;2023-01-27T12:14:50;99507.22;;;20.69;50.42
39449;BME280;25151;45.566;9.382;2023-01-27T12:18:02;99500.84;;;20.68;50.11
39449;BME280;25151;45.566;9.382;2023-01-27T12:21:07;99506.00;;;20.70;50.29
39449;BME280;25151;45.566;9.382;2023-01-27T12:24:20;99500.38;;;20.70;50.50
39449;BME280;25151;45.566;9.382;2023-01-27T12:27:25;99490.28;;;20.72;50.45
39449;BME280;25151;45.566;9.382;2023-01-27T12:30:29;99488.75;;;20.71;50.36
39449;BME280;25151;45.566;9.382;2023-01-27T12:33:33;99485.47;;;20.73;50.49
39449;BME280;25151;45.566;9.382;2023-01-27T12:36:38;99487.03;;;20.74;50.69
39449;BME280;25151;45.566;9.382;2023-01-27T12:39:49;99483.44;;;20.73;50.50
39449;BME280;25151;45.566;9.382;2023-01-27T12:43:14;99483.00;;;20.75;50.63
39449;BME280;25151;45.566;9.382;2023-01-27T12:46:25;99484.09;;;20.77;50.42
39449;BME280;25151;45.566;9.382;2023-01-27T12:49:35;99480.50;;;20.77;50.41
39449;BME280;25151;45.566;9.382;2023-01-27T12:52:37;99486.13;;;20.77;50.47
39449;BME280;25151;45.566;9.382;2023-01-27T12:55:57;99482.06;;;20.78;50.64
39449;BME280;25151;45.566;9.382;2023-01-27T12:58:59;99483.47;;;20.82;50.69
39449;BME280;25151;45.566;9.382;2023-01-27T13:02:10;99476.97;;;20.85;50.60
39449;BME280;25151;45.566;9.382;2023-01-27T13:05:16;99476.31;;;20.81;50.75
39449;BME280;25151;45.566;9.382;2023-01-27T13:08:17;99469.81;;;20.84;50.63
39449;BME280;25151;45.566;9.382;2023-01-27T13:11:30;99472.59;;;20.84;50.46
39449;BME280;25151;45.566;9.382;2023-01-27T13:14:39;99472.13;;;20.86;50.69
39449;BME280;25151;45.566;9.382;2023-01-27T13:17:48;99475.72;;;20.86;50.40
39449;BME280;25151;45.566;9.382;2023-01-27T13:20:55;99471.06;;;20.83;50.34
39449;BME280;25151;45.566;9.382;2023-01-27T13:24:02;99468.25;;;20.83;50.49
39449;BME280;25151;45.566;9.382;2023-01-27T13:27:10;99475.53;;;20.81;50.28
39449;BME280;25151;45.566;9.382;2023-01-27T13:30:25;99476.78;;;20.80;50.20
39449;BME280;25151;45.566;9.382;2023-01-27T13:37:36;99461.22;;;20.79;49.99
39449;BME280;25151;45.566;9.382;2023-01-27T13:40:44;99467.13;;;20.81;50.28
39449;BME280;25151;45.566;9.382;2023-01-27T13:43:52;99463.22;;;20.78;49.96
39449;BME280;25151;45.566;9.382;2023-01-27T13:47:08;99468.06;;;20.78;50.07
39449;BME280;25151;45.566;9.382;2023-01-27T13:53:21;99467.75;;;20.76;50.17
39449;BME280;25151;45.566;9.382;2023-01-27T14:03:56;99469.44;;;20.73;49.78
39449;BME280;25151;45.566;9.382;2023-01-27T14:26:54;99449.00;;;20.63;49.83
39449;BME280;25151;45.566;9.382;2023-01-27T14:30:14;99454.59;;;20.63;49.80
39449;BME280;25151;45.566;9.382;2023-01-27T14:36:30;99455.97;;;20.59;49.43
39449;BME280;25151;45.566;9.382;2023-01-27T14:43:24;99464.81;;;20.57;49.78
39449;BME280;25151;45.566;9.382;2023-01-27T14:53:18;99460.13;;;20.54;49.76
39449;BME280;25151;45.566;9.382;2023-01-27T14:56:45;99459.81;;;20.52;49.60
39449;BME280;25151;45.566;9.382;2023-01-27T15:10:23;99479.66;;;20.45;50.09
39449;BME280;25151;45.566;9.382;2023-01-27T15:14:15;99472.50;;;20.44;49.82
39449;BME280;25151;45.566;9.382;2023-01-27T15:26:56;99454.59;;;20.42;49.79
39449;BME280;25151;45.566;9.382;2023-01-27T15:30:04;99463.91;;;20.38;49.66
39449;BME280;25151;45.566;9.382;2023-01-27T15:37:11;99465.25;;;20.34;49.67
39449;BME280;25151;45.566;9.382;2023-01-27T15:40:18;99466.03;;;20.34;49.80
39449;BME280;25151;45.566;9.382;2023-01-27T15:43:19;99470.88;;;20.34;49.94
39449;BME280;25151;45.566;9.382;2023-01-27T15:46:36;99468.53;;;20.32;49.70
39449;BME280;25151;45.566;9.382;2023-01-27T15:50:12;99464.97;;;20.32;49.95
39449;BME280;25151;45.566;9.382;2023-01-27T15:53:20;99468.53;;;20.32;50.30
39449;BME280;25151;45.566;9.382;2023-01-27T15:56:40;99475.69;;;20.33;50.02
39449;BME280;25151;45.566;9.382;2023-01-27T15:59:47;99476.16;;;20.32;50.21
39449;BME280;25151;45.566;9.382;2023-01-27T16:02:52;99484.56;;;20.32;50.59
39449;BME280;25151;45.566;9.382;2023-01-27T16:06:15;99484.56;;;20.32;50.27
39449;BME280;25151;45.566;9.382;2023-01-27T16:09:38;99481.41;;;20.30;50.28
39449;BME280;25151;45.566;9.382;2023-01-27T16:12:42;99481.88;;;20.28;50.69
39449;BME280;25151;45.566;9.382;2023-01-27T16:15:45;99492.31;;;20.28;50.78
39449;BME280;25151;45.566;9.382;2023-01-27T16:22:01;99502.72;;;20.27;50.46
39449;BME280;25151;45.566;9.382;2023-01-27T16:25:20;99490.41;;;20.25;50.48
39449;BME280;25151;45.566;9.382;2023-01-27T16:28:27;99497.56;;;20.26;50.58
39449;BME280;25151;45.566;9.382;2023-01-27T16:31:29;99496.91;;;20.22;50.76
39449;BME280;25151;45.566;9.382;2023-01-27T16:34:39;99504.72;;;20.27;50.94
39449;BME280;25151;45.566;9.382;2023-01-27T16:38:01;99512.94;;;20.21;50.95
39449;BME280;25151;45.566;9.382;2023-01-27T16:41:20;99508.09;;;20.22;51.10
39449;BME280;25151;45.566;9.382;2023-01-27T16:44:24;99497.69;;;20.22;50.97
39449;BME280;25151;45.566;9.382;2023-01-27T16:47:40;99509.00;;;20.19;51.19
39449;BME280;25151;45.566;9.382;2023-01-27T16:50:43;99510.59;;;20.20;51.08
39449;BME280;25151;45.566;9.382;2023-01-27T16:53:47;99512.28;;;20.17;51.28
39449;BME280;25151;45.566;9.382;2023-01-27T16:56:49;99511.50;;;20.17;51.14
39449;BME280;25151;45.566;9.382;2023-01-27T16:59:52;99513.53;;;20.16;51.10
39449;BME280;25151;45.566;9.382;2023-01-27T17:02:57;99515.97;;;20.14;51.39
39449;BME280;25151;45.566;9.382;2023-01-27T17:06:01;99522.69;;;20.17;51.33
39449;BME280;25151;45.566;9.382;2023-01-27T17:09:18;99523.59;;;20.13;51.19
39449;BME280;25151;45.566;9.382;2023-01-27T17:15:36;99538.84;;;20.12;51.57
39449;BME280;25151;45.566;9.382;2023-01-27T17:18:38;99543.31;;;20.10;51.64
39449;BME280;25151;45.566;9.382;2023-01-27T17:21:54;99530.88;;;20.11;51.50
39449;BME280;25151;45.566;9.382;2023-01-27T17:25:02;99540.50;;;20.10;51.83
39449;BME280;25151;45.566;9.382;2023-01-27T17:28:10;99550.94;;;20.09;51.76
39449;BME280;25151;45.566;9.382;2023-01-27T17:31:18;99543.78;;;20.08;51.67
39449;BME280;25151;45.566;9.382;2023-01-27T17:34:20;99554.19;;;20.08;51.64
39449;BME280;25151;45.566;9.382;2023-01-27T17:37:22;99547.34;;;20.09;52.07
39449;BME280;25151;45.566;9.382;2023-01-27T17:40:23;99561.78;;;20.07;51.90
39449;BME280;25151;45.566;9.382;2023-01-27T17:43:39;99558.31;;;20.03;52.02
39449;BME280;25151;45.566;9.382;2023-01-27T17:46:40;99561.47;;;20.05;52.09
39449;BME280;25151;45.566;9.382;2023-01-27T17:49:41;99556.75;;;20.02;52.11
39449;BME280;25151;45.566;9.382;2023-01-27T17:52:43;99570.31;;;20.04;52.04
39449;BME280;25151;45.566;9.382;2023-01-27T17:55:44;99565.50;;;20.04;52.01
39449;BME280;25151;45.566;9.382;2023-01-27T17:58:45;99569.19;;;20.01;52.22
39449;BME280;25151;45.566;9.382;2023-01-27T18:01:52;99568.06;;;19.99;52.08
39449;BME280;25151;45.566;9.382;2023-01-27T18:04:54;99568.84;;;19.99;51.88
39449;BME280;25151;45.566;9.382;2023-01-27T18:07:58;99571.00;;;19.95;52.13
39449;BME280;25151;45.566;9.382;2023-01-27T18:11:19;99569.13;;;19.92;52.07
39449;BME280;25151;45.566;9.382;2023-01-27T18:14:20;99571.56;;;19.90;51.92
39449;BME280;25151;45.566;9.382;2023-01-27T18:17:23;99570.78;;;19.89;52.14
39449;BME280;25151;45.566;9.382;2023-01-27T18:20:33;99574.06;;;19.88;52.26